AirNav   Pilot Hours Calculator
 
 1272 users online  

2CL9 Mustang Airport
Galt, California, USA

GOING TO GALT?


FAA INFORMATION EFFECTIVE 25 MARCH 2021

Location

FAA Identifier: 2CL9
Lat/Long: 38-20-03.6860N 121-18-12.8160W
38-20.061433N 121-18.213600W
38.3343572,-121.3035600
(estimated)
Elevation: 45 ft. / 14 m (estimated)
Variation: 16E (1990)
From city: 6 miles N of GALT, CA
Time zone: UTC -7 (UTC -8 during Standard Time)
Zip code: 95632

Airport Operations

Airport use: Private use. Permission required prior to landing
Activation date: 12/1992
Control tower: no
ARTCC: OAKLAND CENTER
FSS: RANCHO MURIETA FLIGHT SERVICE STATION
Attendance: UNATNDD
Wind indicator: yes
Segmented circle: no

Airport Communications

WX AWOS-3 at MHR (13 nm N): 118.325 (916-366-3371)
WX ASOS at SAC (14 nm NW): PHONE 916-421-0923

Nearby radio navigation aids

VOR radial/distance  VOR name  Freq  Var
SACr102/13.4SACRAMENTO VORTAC115.2017E
MCCr150/20.5MC CLELLAN VOR/DME109.2017E
LINr301/21.0LINDEN VOR/DME114.8017E
HNWr211/35.0HANGTOWN VOR/DME115.5017E
CCRr047/39.0CONCORD VOR/DME117.0017E

Airport Services

Runway Information

Runway 7/25

Dimensions: 4000 x 40 ft. / 1219 x 12 m
Surface: asphalt
RUNWAY 7  RUNWAY 25
Traffic pattern: leftleft

Airport Ownership and Management from official FAA records

Ownership: Privately-owned
Owner: RICHARD BJELLAND
10565 ARNO ROAD
GALT, CA 95632-8557
Phone 209-745-6062
Manager: RICHARD BJELLAND
10565 ARNO ROAD
GALT, CA 95632-8557
Phone 209-745-6062

Airport Operational Statistics

Aircraft based on the field: 3
Single engine airplanes: 1
Multi engine airplanes: 1
Jet airplanes: 1
    

Additional Remarks

FOR CD CTC NORCAL APCH AT 916-361-6874.

Instrument Procedures

There are no published instrument procedures at 2CL9.

Some nearby airports with instrument procedures:

1O3 - Lodi Airport (8 nm S)
KMHR - Sacramento Mather Airport (13 nm N)
KSAC - SacramentoExecutive Airport (14 nm NW)
KMCC - Mc Clellan Airfield (21 nm N)
O88 - Rio Vista Municipal Airport (21 nm SW)
 
Loc | Ops | Rwys | IFR | FBO | Links
Com | Nav | Svcs | Stats | Notes
Area around 2CL9 (Mustang Airport)
 
Road maps at: MapQuest Bing Google
 
Aerial photo
WARNING: Photo may not be current or correct
Aerial photo of 2CL9 (Mustang Airport)
Do you have a better or more recent aerial photo of Mustang Airport that you would like to share? If so, please send us your photo.

 
Sectional chart

 
Airport distance calculator
Flying to Mustang Airport? Find the distance to fly.

From to 2CL9

Sunrise and sunset
Times for 17-Apr-2021
 Local
(UTC-7)
 Zulu
(UTC)
Morning civil twilight06:0013:00
Sunrise06:2713:27
Sunset19:4202:42
Evening civil twilight20:1003:10

Current date and time
Zulu (UTC)  17-Apr-2021 15:44:26
Local (UTC-7)  17-Apr-2021 08:44:26
 
METAR
KMHR 
12nm N 
171445Z 00000KT 10SM SKC 11/08 A2999
KSAC 
14nm NW 
171453Z 29006KT 10SM CLR 12/08 A3001 RMK AO2 SLP162 T01220078 53009 $
KMCC 
20nm N 
171535Z AUTO 33006KT 10SM CLR 14/07 A3001 RMK AO2
TAF
KMHR 
12nm N 
171128Z 1712/1812 VRB04KT P6SM SKC FM171600 35006KT P6SM SKC TEMPO 1721/1801 33012G18KT FM180300 34006KT P6SM SKC AMD NOT SKED
KSAC 
14nm NW 
171128Z 1712/1812 VRB04KT P6SM SKC FM171800 35009KT P6SM SKC TEMPO 1722/1801 35011G17KT FM180300 34006KT P6SM SKC
NOTAMs
Click for the latest NOTAMs
NOTAMs are issued by the DoD/FAA and will open in a separate window not controlled by AirNav.

 

 
 

Would you like to see your business listed on this page?

 If your business provides an interesting product or service to pilots, flight crews, aircraft, or users of the Mustang Airport, you should consider listing it here.  To start the listing process, click on the button below
 
Add a business
 

Other Pages about Mustang Airport

Update a link
 
Copyright © AirNav, LLC. All rights reserved. Privacy Policy  Contact